Time,TemperatureF,DewpointF,PressureIn,WindDirection,WindDirectionDegrees,WindSpeedMPH,WindSpeedGustMPH,Humidity,HourlyPrecipIn,Conditions,Clouds,dailyrainin,SolarRadiationWatts/m^2,SoftwareType,DateUTC
2013-05-15 00:10:00,69.1,58.0,30.25,NNE,31,3.0,-999.0,68,-99.99,,,0.00,0,weatherlink.com 1.10,2013-05-15 04:10:00,
2013-05-15 00:25:00,69.2,59.0,30.25,NNE,31,2.0,-999.0,71,-99.99,,,0.00,0,weatherlink.com 1.10,2013-05-15 04:25:00,
2013-05-15 00:40:00,69.2,59.0,30.25,NNE,30,3.0,-999.0,70,-99.99,,,0.00,0,weatherlink.com 1.10,2013-05-15 04:40:00,
2013-05-15 00:55:00,69.3,60.0,30.25,NNE,31,3.0,-999.0,71,-99.99,,,0.00,0,weatherlink.com 1.10,2013-05-15 04:55:00,
2013-05-15 01:10:00,69.3,60.0,30.24,NNE,30,2.0,-999.0,71,-99.99,,,0.00,0,weatherlink.com 1.10,2013-05-15 05:10:00,
2013-05-15 01:25:00,69.2,60.0,30.24,NNE,31,3.0,-999.0,72,-99.99,,,0.00,0,weatherlink.com 1.10,2013-05-15 05:25:00,
2013-05-15 01:40:00,69.5,61.0,30.24,NNE,31,4.0,-999.0,73,-99.99,,,0.00,0,weatherlink.com 1.10,2013-05-15 05:40:00,
2013-05-15 01:55:00,69.2,60.0,30.23,NNE,30,1.0,-999.0,72,-99.99,,,0.00,0,weatherlink.com 1.10,2013-05-15 05:55:00,
2013-05-15 02:10:00,68.1,60.0,30.23,NNE,30,2.0,-999.0,74,-99.99,,,0.00,0,weatherlink.com 1.10,2013-05-15 06:10:00,
2013-05-15 02:25:00,67.1,59.0,30.22,NNE,30,0.0,-999.0,76,-99.99,,,0.00,0,weatherlink.com 1.10,2013-05-15 06:25:00,
2013-05-15 02:40:00,67.1,60.0,30.21,NNE,30,3.0,-999.0,77,-99.99,,,0.00,0,weatherlink.com 1.10,2013-05-15 06:40:00,
2013-05-15 02:55:00,67.2,60.0,30.21,NNE,31,3.0,-999.0,77,-99.99,,,0.00,0,weatherlink.com 1.10,2013-05-15 06:55:00,
2013-05-15 03:10:00,66.8,59.0,30.21,NNE,30,1.0,-999.0,77,-99.99,,,0.00,0,weatherlink.com 1.10,2013-05-15 07:10:00,
2013-05-15 03:25:00,66.3,59.0,30.21,NNE,30,0.0,-999.0,77,-99.99,,,0.00,0,weatherlink.com 1.10,2013-05-15 07:25:00,
2013-05-15 03:40:00,65.7,58.0,30.20,NNE,31,0.0,-999.0,77,-99.99,,,0.00,0,weatherlink.com 1.10,2013-05-15 07:40:00,
2013-05-15 03:55:00,65.4,58.0,30.20,NNE,31,0.0,-999.0,78,-99.99,,,0.00,0,weatherlink.com 1.10,2013-05-15 07:55:00,
2013-05-15 04:10:00,65.1,58.0,30.20,NNE,30,0.0,-999.0,78,-99.99,,,0.00,0,weatherlink.com 1.10,2013-05-15 08:10:00,
2013-05-15 04:25:00,64.6,58.0,30.20,NNE,30,2.0,-999.0,78,-99.99,,,0.00,0,weatherlink.com 1.10,2013-05-15 08:25:00,
2013-05-15 04:40:00,64.1,57.0,30.20,NNE,30,2.0,-999.0,78,-99.99,,,0.00,0,weatherlink.com 1.10,2013-05-15 08:40:00,
2013-05-15 04:55:00,63.9,57.0,30.21,NNE,30,2.0,-999.0,77,-99.99,,,0.00,0,weatherlink.com 1.10,2013-05-15 08:55:00,
2013-05-15 05:10:00,63.9,57.0,30.21,NNE,31,2.0,-999.0,77,-99.99,,,0.00,0,weatherlink.com 1.10,2013-05-15 09:10:00,
2013-05-15 05:25:00,64.1,57.0,30.21,NNE,30,2.0,-999.0,79,-99.99,,,0.00,0,weatherlink.com 1.10,2013-05-15 09:25:00,
2013-05-15 05:40:00,64.2,58.0,30.22,NNE,31,2.0,-999.0,80,-99.99,,,0.00,0,weatherlink.com 1.10,2013-05-15 09:40:00,
2013-05-15 05:55:00,64.3,58.0,30.22,NNE,30,0.0,-999.0,79,-99.99,,,0.00,0,weatherlink.com 1.10,2013-05-15 09:55:00,
2013-05-15 06:10:00,64.0,57.0,30.23,NNE,30,2.0,-999.0,78,-99.99,,,0.00,0,weatherlink.com 1.10,2013-05-15 10:10:00,
2013-05-15 06:25:00,63.8,56.0,30.23,NNE,30,0.0,-999.0,77,-99.99,,,0.00,0,weatherlink.com 1.10,2013-05-15 10:25:00,
2013-05-15 06:40:00,63.5,57.0,30.23,NNE,30,0.0,-999.0,78,-99.99,,,0.00,9,weatherlink.com 1.10,2013-05-15 10:40:00,
2013-05-15 06:55:00,63.4,56.0,30.24,NNE,30,0.0,-999.0,77,-99.99,,,0.00,16,weatherlink.com 1.10,2013-05-15 10:55:00,
2013-05-15 07:10:00,63.9,57.0,30.24,NNE,30,0.0,-999.0,77,-99.99,,,0.00,23,weatherlink.com 1.10,2013-05-15 11:10:00,
2013-05-15 07:25:00,64.4,57.0,30.24,NNE,30,0.0,-999.0,77,-99.99,,,0.00,91,weatherlink.com 1.10,2013-05-15 11:25:00,
2013-05-15 07:40:00,65.1,57.0,30.25,NNE,30,0.0,-999.0,75,-99.99,,,0.00,37,weatherlink.com 1.10,2013-05-15 11:40:00,
2013-05-15 07:55:00,65.6,57.0,30.25,NNE,30,0.0,-999.0,73,-99.99,,,0.00,186,weatherlink.com 1.10,2013-05-15 11:55:00,
2013-05-15 08:10:00,66.3,57.0,30.25,NNE,30,2.0,-999.0,72,-99.99,,,0.00,232,weatherlink.com 1.10,2013-05-15 12:10:00,
2013-05-15 08:25:00,67.0,58.0,30.26,NNE,30,0.0,-999.0,73,-99.99,,,0.00,278,weatherlink.com 1.10,2013-05-15 12:25:00,
2013-05-15 08:40:00,68.4,59.0,30.26,NNE,30,2.0,-999.0,72,-99.99,,,0.00,320,weatherlink.com 1.10,2013-05-15 12:40:00,
2013-05-15 08:55:00,68.6,60.0,30.27,NNE,30,4.0,-999.0,73,-99.99,,,0.00,366,weatherlink.com 1.10,2013-05-15 12:55:00,
2013-05-15 09:10:00,69.3,60.0,30.27,NNE,31,5.0,-999.0,73,-99.99,,,0.00,411,weatherlink.com 1.10,2013-05-15 13:10:00,
2013-05-15 09:25:00,70.2,60.0,30.27,NNE,31,3.0,-999.0,71,-99.99,,,0.00,457,weatherlink.com 1.10,2013-05-15 13:25:00,
2013-05-15 09:40:00,71.3,61.0,30.27,NNE,30,2.0,-999.0,70,-99.99,,,0.00,501,weatherlink.com 1.10,2013-05-15 13:40:00,
2013-05-15 10:10:00,74.7,57.0,30.27,North,360,4.0,-999.0,55,-99.99,,,0.00,584,weatherlink.com 1.10,2013-05-15 14:10:00,
2013-05-15 10:25:00,75.6,57.0,30.27,North,360,1.0,-999.0,53,-99.99,,,0.00,621,weatherlink.com 1.10,2013-05-15 14:25:00,
2013-05-15 10:55:00,77.3,56.0,30.26,North,360,2.0,-999.0,48,-99.99,,,0.00,686,weatherlink.com 1.10,2013-05-15 14:55:00,
2013-05-15 11:25:00,77.2,58.0,30.26,North,360,2.0,-999.0,51,-99.99,,,0.00,749,weatherlink.com 1.10,2013-05-15 15:25:00,
2013-05-15 11:40:00,76.3,57.0,30.26,North,360,2.0,-999.0,52,-99.99,,,0.00,775,weatherlink.com 1.10,2013-05-15 15:40:00,
2013-05-15 11:55:00,76.7,57.0,30.25,North,360,4.0,-999.0,50,-99.99,,,0.00,798,weatherlink.com 1.10,2013-05-15 15:55:00,
2013-05-15 12:10:00,76.8,56.0,30.25,North,360,3.0,-999.0,49,-99.99,,,0.00,816,weatherlink.com 1.10,2013-05-15 16:10:00,
2013-05-15 12:25:00,77.0,56.0,30.25,North,360,4.0,-999.0,49,-99.99,,,0.00,680,weatherlink.com 1.10,2013-05-15 16:25:00,
2013-05-15 13:25:00,78.9,57.0,30.23,North,360,4.0,-999.0,47,-99.99,,,0.00,749,weatherlink.com 1.10,2013-05-15 17:25:00,
2013-05-15 13:40:00,79.3,59.0,30.22,North,360,6.0,-999.0,50,-99.99,,,0.00,714,weatherlink.com 1.10,2013-05-15 17:40:00,
2013-05-15 13:55:00,79.2,57.0,30.22,North,360,6.0,-999.0,47,-99.99,,,0.00,629,weatherlink.com 1.10,2013-05-15 17:55:00,
2013-05-15 14:10:00,78.9,56.0,30.20,North,5,6.0,-999.0,46,-99.99,,,0.00,831,weatherlink.com 1.10,2013-05-15 18:10:00,
2013-05-15 14:25:00,81.0,60.0,30.20,NE,38,8.0,-999.0,49,-99.99,,,0.00,675,weatherlink.com 1.10,2013-05-15 18:25:00,
2013-05-15 14:40:00,79.4,59.0,30.19,East,79,7.0,-999.0,49,-99.99,,,0.00,800,weatherlink.com 1.10,2013-05-15 18:40:00,
2013-05-15 14:55:00,79.6,59.0,30.18,East,79,5.0,-999.0,50,-99.99,,,0.00,793,weatherlink.com 1.10,2013-05-15 18:55:00,
2013-05-15 15:10:00,80.0,57.0,30.18,East,79,8.0,-999.0,45,-99.99,,,0.00,770,weatherlink.com 1.10,2013-05-15 19:10:00,
2013-05-15 15:40:00,80.9,56.0,30.16,East,79,5.0,-999.0,43,-99.99,,,0.00,715,weatherlink.com 1.10,2013-05-15 19:40:00,
2013-05-15 16:10:00,80.8,55.0,30.15,East,79,7.0,-999.0,41,-99.99,,,0.00,647,weatherlink.com 1.10,2013-05-15 20:10:00,
2013-05-15 16:40:00,80.9,55.0,30.14,East,79,7.0,-999.0,41,-99.99,,,0.00,571,weatherlink.com 1.10,2013-05-15 20:40:00,
2013-05-15 16:55:00,80.9,62.0,30.14,East,79,5.0,-999.0,53,-99.99,,,0.00,529,weatherlink.com 1.10,2013-05-15 20:55:00,
2013-05-15 17:10:00,81.3,61.0,30.14,East,79,2.0,-999.0,50,-99.99,,,0.00,490,weatherlink.com 1.10,2013-05-15 21:10:00,
2013-05-15 17:25:00,81.2,61.0,30.14,East,79,5.0,-999.0,51,-99.99,,,0.00,450,weatherlink.com 1.10,2013-05-15 21:25:00,
2013-05-15 17:40:00,81.2,58.0,30.13,East,79,5.0,-999.0,45,-99.99,,,0.00,392,weatherlink.com 1.10,2013-05-15 21:40:00,
2013-05-15 17:55:00,80.9,60.0,30.13,East,84,6.0,-999.0,49,-99.99,,,0.00,357,weatherlink.com 1.10,2013-05-15 21:55:00,
2013-05-15 18:10:00,80.9,61.0,30.12,East,86,13.0,-999.0,51,-99.99,,,0.00,279,weatherlink.com 1.10,2013-05-15 22:10:00,
2013-05-15 18:25:00,80.6,58.0,30.12,East,87,5.0,-999.0,46,-99.99,,,0.00,248,weatherlink.com 1.10,2013-05-15 22:25:00,
2013-05-15 19:10:00,79.3,57.0,30.12,ENE,74,8.0,-999.0,47,-99.99,,,0.00,127,weatherlink.com 1.10,2013-05-15 23:10:00,
2013-05-15 19:25:00,79.0,56.0,30.12,ENE,78,6.0,-999.0,46,-99.99,,,0.00,56,weatherlink.com 1.10,2013-05-15 23:25:00,
2013-05-15 19:40:00,79.8,57.0,30.12,ENE,78,5.0,-999.0,45,-99.99,,,0.00,39,weatherlink.com 1.10,2013-05-15 23:40:00,
2013-05-15 19:55:00,77.9,57.0,30.12,ENE,67,5.0,-999.0,48,-99.99,,,0.00,12,weatherlink.com 1.10,2013-05-15 23:55:00,
2013-05-15 20:10:00,77.3,56.0,30.12,ENE,67,4.0,-999.0,48,-99.99,,,0.00,0,weatherlink.com 1.10,2013-05-16 00:10:00,
2013-05-15 20:25:00,76.4,58.0,30.12,ENE,67,4.0,-999.0,54,-99.99,,,0.00,0,weatherlink.com 1.10,2013-05-16 00:25:00,
2013-05-15 20:55:00,75.7,59.0,30.13,ENE,68,4.0,-999.0,56,-99.99,,,0.00,0,weatherlink.com 1.10,2013-05-16 00:55:00,
2013-05-15 21:10:00,75.4,59.0,30.13,ENE,67,3.0,-999.0,57,-99.99,,,0.00,0,weatherlink.com 1.10,2013-05-16 01:10:00,
2013-05-15 21:25:00,74.8,59.0,30.13,ENE,69,4.0,-999.0,58,-99.99,,,0.00,0,weatherlink.com 1.10,2013-05-16 01:25:00,
2013-05-15 21:55:00,74.1,61.0,30.14,ENE,69,4.0,-999.0,64,-99.99,,,0.00,0,weatherlink.com 1.10,2013-05-16 01:55:00,
2013-05-15 22:10:00,73.6,62.0,30.14,ENE,69,8.0,-999.0,67,-99.99,,,0.00,0,weatherlink.com 1.10,2013-05-16 02:10:00,
2013-05-15 22:55:00,73.0,63.0,30.15,East,92,8.0,-999.0,71,-99.99,,,0.00,0,weatherlink.com 1.10,2013-05-16 02:55:00,
2013-05-15 23:10:00,73.0,63.0,30.14,East,93,5.0,-999.0,72,-99.99,,,0.00,0,weatherlink.com 1.10,2013-05-16 03:10:00,
2013-05-15 23:40:00,72.5,63.0,30.14,ESE,103,7.0,-999.0,71,-99.99,,,0.00,0,weatherlink.com 1.10,2013-05-16 03:40:00,
2013-05-15 23:55:00,72.8,63.0,30.14,ESE,114,5.0,-999.0,72,-99.99,,,0.00,0,weatherlink.com 1.10,2013-05-16 03:55:00,